Time;durP1;ratioP1;P1;durP2;ratioP2;P2;SDS_P1;SDS_P2;PMS_P1;PMS_P2;Temp;Humidity;BMP_temperature;BMP_pressure;BME280_temperature;BME280_humidity;BME280_pressure;Samples;Min_cycle;Max_cycle;Signal;HPM_P1;HPM_P2
2024/01/11 00:01:23;;;;;;;;;102.50;72.50;;;;;-4.75;100.00;100873.09;6265877;20;3559723;-43
2024/01/11 00:03:53;;;;;;;;;90.33;70.67;;;;;-4.71;100.00;100869.69;6300880;20;2906700;-46
2024/01/11 00:06:23;;;;;;;;;101.67;72.00;;;;;-4.82;100.00;100868.56;6306467;20;3685693;-44
2024/01/11 00:08:52;;;;;;;;;100.67;68.67;;;;;-4.83;100.00;100876.41;6274419;20;3691934;-43
2024/01/11 00:11:21;;;;;;;;;107.33;72.67;;;;;-5.66;100.00;100877.22;6304637;20;3689932;-43
2024/01/11 00:13:51;;;;;;;;;108.67;75.00;;;;;-5.80;100.00;100879.53;6272884;20;3682543;-44
2024/01/11 00:16:21;;;;;;;;;101.33;73.00;;;;;-5.56;100.00;100884.44;6276984;20;3687747;-43
2024/01/11 00:18:51;;;;;;;;;102.33;75.33;;;;;-5.61;100.00;100881.75;6306673;20;3680533;-42
2024/01/11 00:21:20;;;;;;;;;96.67;69.00;;;;;-5.56;100.00;100879.22;6272383;20;4435764;-44
2024/01/11 00:23:50;;;;;;;;;105.00;72.67;;;;;-5.52;100.00;100876.69;6307219;20;3693990;-44
2024/01/11 00:26:20;;;;;;;;;106.33;76.67;;;;;-5.45;100.00;100874.22;6274570;20;3698189;-43
2024/01/11 00:28:49;;;;;;;;;105.00;76.00;;;;;-5.40;100.00;100864.72;6271783;20;3692969;-42
2024/01/11 00:31:19;;;;;;;;;96.00;70.67;;;;;-5.37;100.00;100865.72;6274589;20;2896173;-44
2024/01/11 00:33:49;;;;;;;;;103.00;69.67;;;;;-5.41;100.00;100862.97;6305809;20;3686732;-43
2024/01/11 00:36:21;;;;;;;;;98.80;71.20;;;;;-5.19;100.00;100859.97;6272062;20;3648317;-42
2024/01/11 00:38:51;;;;;;;;;100.00;72.00;;;;;-5.17;100.00;100860.88;6275470;20;3693999;-43
2024/01/11 00:41:21;;;;;;;;;92.67;65.67;;;;;-4.88;100.00;100855.34;6272099;20;3665296;-43
2024/01/11 00:43:51;;;;;;;;;96.67;71.33;;;;;-4.87;100.00;100857.13;6305107;20;3675242;-43
2024/01/11 00:46:20;;;;;;;;;112.00;75.67;;;;;-4.86;100.00;100851.91;6273859;20;3679406;-42
2024/01/11 00:48:50;;;;;;;;;128.00;94.67;;;;;-4.70;100.00;100847.84;6308339;20;3705469;-42
2024/01/11 00:51:24;;;;;;;;;126.33;100.33;;;;;-4.67;100.00;100842.66;6272103;20;3721121;-42
2024/01/11 00:53:54;;;;;;;;;120.67;91.67;;;;;-4.52;100.00;100841.19;6274672;20;3706492;-44
2024/01/11 00:56:24;;;;;;;;;121.67;89.67;;;;;-4.64;100.00;100847.09;6274450;20;3705676;-43
2024/01/11 00:58:54;;;;;;;;;127.67;86.00;;;;;-4.71;100.00;100850.47;6273581;20;3712769;-43
2024/01/11 01:01:24;;;;;;;;;125.00;85.67;;;;;-4.71;100.00;100838.25;6275810;20;3699227;-44
2024/01/11 01:03:54;;;;;;;;;108.67;78.00;;;;;-4.73;100.00;100834.72;6272297;20;3679440;-43
2024/01/11 01:06:23;;;;;;;;;95.60;68.40;;;;;-4.77;100.00;100830.25;6272271;20;3652420;-44
2024/01/11 01:08:54;;;;;;;;;93.67;63.83;;;;;-4.89;100.00;100827.41;6270633;20;4442416;-42
2024/01/11 01:11:23;;;;;;;;;99.67;71.33;;;;;-4.91;100.00;100829.13;6307043;20;3677476;-43
2024/01/11 01:13:53;;;;;;;;;99.33;72.33;;;;;-4.91;100.00;100839.59;6303339;20;3683575;-42
2024/01/11 01:16:23;;;;;;;;;98.67;69.33;;;;;-5.11;100.00;100823.47;6271497;20;3682658;-42
2024/01/11 01:18:53;;;;;;;;;103.67;69.33;;;;;-5.00;100.00;100824.59;6304741;20;3684656;-43
2024/01/11 01:21:22;;;;;;;;;108.33;78.00;;;;;-4.98;100.00;100816.75;6273756;20;3703457;-42
2024/01/11 01:23:52;;;;;;;;;97.33;71.50;;;;;-5.20;100.00;100811.09;6264655;20;3673280;-43
2024/01/11 01:26:22;;;;;;;;;104.33;72.67;;;;;-4.93;100.00;100817.72;6305448;20;3691147;-42
2024/01/11 01:28:51;;;;;;;;;97.00;70.00;;;;;-5.05;100.00;100812.22;6307459;20;2798241;-43
2024/01/11 01:31:22;;;;;;;;;105.33;72.00;;;;;-5.09;100.00;100809.56;6275053;20;3692992;-42
2024/01/11 01:33:51;;;;;;;;;92.33;66.00;;;;;-5.03;100.00;100800.06;6304509;20;3668998;-42
2024/01/11 01:36:21;;;;;;;;;99.67;72.00;;;;;-4.87;100.00;100804.72;6307330;20;3681597;-42
2024/01/11 01:38:51;;;;;;;;;111.00;76.00;;;;;-5.00;100.00;100797.50;6303393;20;3697137;-43
2024/01/11 01:41:20;;;;;;;;;100.67;72.67;;;;;-4.92;100.00;100795.94;6273958;20;3697153;-42
2024/01/11 01:43:50;;;;;;;;;108.67;72.67;;;;;-5.07;100.00;100796.50;6303491;20;3683605;-42
2024/01/11 01:46:24;;;;;;;;;105.67;73.67;;;;;-4.83;100.00;100787.34;6306228;20;3683662;-43
2024/01/11 01:48:57;;;;;;;;;96.17;70.00;;;;;-5.50;100.00;100787.78;6267311;20;3677470;-41
2024/01/11 01:51:31;;;;;;;;;101.33;76.67;;;;;-6.50;100.00;100785.53;6305032;20;3682659;-45
2024/01/11 01:54:03;;;;;;;;;96.67;67.33;;;;;-5.81;100.00;100786.25;6305182;20;3675326;-42
2024/01/11 01:56:33;;;;;;;;;89.33;67.50;;;;;-5.52;100.00;100782.50;6300048;20;3657556;-43
2024/01/11 01:59:04;;;;;;;;;92.33;67.67;;;;;-5.47;100.00;100776.50;6303075;20;2912933;-43
2024/01/11 02:01:34;;;;;;;;;82.00;61.00;;;;;-5.71;100.00;100771.59;6302809;20;2502560;-43
2024/01/11 02:04:04;;;;;;;;;103.33;70.67;;;;;-5.41;100.00;100769.66;6271537;20;3689863;-41
2024/01/11 02:06:35;;;;;;;;;88.50;62.00;;;;;-5.58;100.00;100761.47;6268578;20;3676388;-44
2024/01/11 02:09:08;;;;;;;;;90.00;63.00;;;;;-6.06;100.00;100767.38;6304191;20;2910762;-43
2024/01/11 02:11:38;;;;;;;;;77.80;60.00;;;;;-6.20;100.00;100764.47;6301601;20;3638782;-42
2024/01/11 02:14:10;;;;;;;;;87.67;60.00;;;;;-5.77;100.00;100760.16;6268224;20;3669045;-41
2024/01/11 02:16:39;;;;;;;;;83.40;60.60;;;;;-6.33;100.00;100753.69;6303074;20;3641969;-42
2024/01/11 02:19:14;;;;;;;;;92.67;65.33;;;;;-6.96;100.00;100750.38;6273453;20;2914050;-42
2024/01/11 02:21:44;;;;;;;;;84.00;66.00;;;;;-7.16;100.00;100751.56;6298685;20;2502374;-42
2024/01/11 02:24:13;;;;;;;;;86.33;65.33;;;;;-6.92;100.00;100744.41;6271044;20;3650250;-42
2024/01/11 02:27:08;;;;;;;;;94.17;68.83;;;;;-6.39;100.00;100741.38;6300476;20;3664939;-42
2024/01/11 02:29:38;;;;;;;;;92.00;66.00;;;;;-5.96;100.00;100732.78;6305559;20;3667060;-42
2024/01/11 02:32:08;;;;;;;;;95.33;69.33;;;;;-5.82;100.00;100734.78;6306092;20;3668004;-41
2024/01/11 02:34:38;;;;;;;;;93.33;69.33;;;;;-5.41;100.00;100730.41;6299041;20;3664896;-43
2024/01/11 02:37:08;;;;;;;;;94.67;71.33;;;;;-6.11;100.00;100721.09;6300441;20;3664866;-43
2024/01/11 02:39:38;;;;;;;;;87.67;66.00;;;;;-5.36;100.00;100730.50;6303030;20;3670252;-41
2024/01/11 02:42:07;;;;;;;;;102.33;71.33;;;;;-6.51;100.00;100715.81;6305518;20;3682604;-42
2024/01/11 02:44:37;;;;;;;;;93.67;70.67;;;;;-6.17;100.00;100716.63;6301932;20;2899343;-42
2024/01/11 02:47:06;;;;;;;;;89.20;67.00;;;;;-5.67;100.00;100718.53;6298354;20;3649207;-42
2024/01/11 02:49:36;;;;;;;;;117.67;79.67;;;;;-5.62;100.00;100712.53;6274198;20;3707635;-42
2024/01/11 02:52:06;;;;;;;;;108.67;79.00;;;;;-5.27;100.00;100703.63;6271734;20;3687784;-42
2024/01/11 02:54:35;;;;;;;;;103.33;71.50;;;;;-6.01;100.00;100705.63;6300418;20;4454398;-42
2024/01/11 02:57:05;;;;;;;;;101.33;73.00;;;;;-6.51;100.00;100704.50;6305538;20;3701288;-42
2024/01/11 02:59:36;;;;;;;;;92.00;64.00;;;;;-6.58;100.00;100698.25;6270244;20;4431489;-42
2024/01/11 03:02:05;;;;;;;;;83.20;59.20;;;;;-6.41;100.00;100691.69;6301249;20;3648594;-42
2024/01/11 03:04:34;;;;;;;;;91.00;69.00;;;;;-6.11;100.00;100694.94;6271964;20;2895099;-41
2024/01/11 03:07:04;;;;;;;;;87.00;65.33;;;;;-6.55;100.00;100687.88;6303610;20;2904472;-42
2024/01/11 03:09:34;;;;;;;;;95.83;68.83;;;;;-7.10;100.00;100691.75;6300951;20;3669084;-42
2024/01/11 03:12:03;;;;;;;;;95.33;64.67;;;;;-7.02;100.00;100686.72;6300612;20;2902425;-43
2024/01/11 03:14:33;;;;;;;;;106.33;74.33;;;;;-7.29;100.00;100683.44;6300281;20;3701370;-42
2024/01/11 03:17:04;;;;;;;;;101.50;71.67;;;;;-7.08;100.00;100677.00;6265389;20;3690964;-41
2024/01/11 03:19:38;;;;;;;;;106.33;75.00;;;;;-7.17;100.00;100668.94;6301473;20;3694101;-42
2024/01/11 03:22:08;;;;;;;;;100.33;73.00;;;;;-6.92;100.00;100665.22;6264309;20;3685245;-42
2024/01/11 03:24:40;;;;;;;;;93.00;68.20;;;;;-6.59;100.00;100669.47;6301217;20;3659621;-41
2024/01/11 03:27:10;;;;;;;;;99.67;72.00;;;;;-7.12;100.00;100668.19;6270978;20;3679479;-42
2024/01/11 03:29:39;;;;;;;;;99.67;74.33;;;;;-7.18;100.00;100669.78;6303728;20;3690899;-42
2024/01/11 03:32:08;;;;;;;;;95.67;67.00;;;;;-7.44;100.00;100663.88;6297129;20;2906676;-43
2024/01/11 03:34:38;;;;;;;;;100.67;68.83;;;;;-7.18;100.00;100668.06;6297896;20;4449191;-42
2024/01/11 03:37:08;;;;;;;;;102.33;66.00;;;;;-7.46;100.00;100661.22;6302848;20;3683688;-44
2024/01/11 03:39:38;;;;;;;;;101.33;70.83;;;;;-7.45;100.00;100649.06;6299553;20;3678469;-44
2024/01/11 03:42:07;;;;;;;;;97.67;72.00;;;;;-7.39;100.00;100650.13;6309490;20;3674172;-45
2024/01/11 03:44:37;;;;;;;;;104.67;72.67;;;;;-7.42;100.00;100639.59;6304316;20;4458574;-44
2024/01/11 03:47:07;;;;;;;;;101.33;75.00;;;;;-7.52;100.00;100645.41;6309552;20;3683560;-45
2024/01/11 03:49:37;;;;;;;;;102.67;70.67;;;;;-7.55;100.00;100637.53;6308971;20;3685651;-43
2024/01/11 03:52:07;;;;;;;;;103.00;74.33;;;;;-7.72;100.00;100635.31;6309126;20;3687860;-42
2024/01/11 03:54:37;;;;;;;;;101.00;70.33;;;;;-7.68;100.00;100635.41;6301075;20;3690981;-42
2024/01/11 03:57:07;;;;;;;;;109.67;72.00;;;;;-7.38;100.00;100636.22;6307841;20;3692938;-42
2024/01/11 03:59:35;;;;;;;;;95.40;61.40;;;;;-7.31;100.00;100639.88;6302447;20;3674237;-42
2024/01/11 04:02:04;;;;;;;;;95.60;67.00;;;;;-7.35;100.00;100638.91;6273012;20;3665877;-42
2024/01/11 04:04:34;;;;;;;;;105.33;72.00;;;;;-6.95;100.00;100636.41;6275390;20;3688815;-42
2024/01/11 04:07:04;;;;;;;;;95.00;67.50;;;;;-7.20;100.00;100637.53;6305234;20;3677471;-41
2024/01/11 04:09:37;;;;;;;;;99.67;68.33;;;;;-6.91;100.00;100643.50;6309291;20;3680463;-41
2024/01/11 04:12:07;;;;;;;;;90.00;63.00;;;;;-7.03;100.00;100651.00;6307360;20;2913914;-41
2024/01/11 04:14:40;;;;;;;;;103.67;72.00;;;;;-7.21;100.00;100644.50;6301676;20;3674805;-42
2024/01/11 04:17:10;;;;;;;;;102.33;69.67;;;;;-6.64;100.00;100645.88;6309072;20;3679558;-41
2024/01/11 04:19:40;;;;;;;;;77.20;58.40;;;;;-6.04;100.00;100645.47;6306230;20;3623408;-42
2024/01/11 04:22:09;;;;;;;;;88.50;58.33;;;;;-6.03;100.00;100639.41;6276313;20;3671106;-41
2024/01/11 04:24:42;;;;;;;;;89.67;65.33;;;;;-6.01;100.00;100642.91;6307050;20;2895258;-41
2024/01/11 04:27:12;;;;;;;;;93.33;65.00;;;;;-5.89;100.00;100638.75;6302887;20;3665008;-43
2024/01/11 04:29:41;;;;;;;;;92.50;66.67;;;;;-5.47;100.00;100643.06;6305671;20;4429457;-41
2024/01/11 04:32:11;;;;;;;;;103.33;71.00;;;;;-6.02;100.00;100638.53;6305601;20;3668180;-42
2024/01/11 04:34:41;;;;;;;;;94.67;67.00;;;;;-5.78;100.00;100643.34;6307145;20;3662875;-41
2024/01/11 04:37:10;;;;;;;;;77.00;58.60;;;;;-5.63;100.00;100639.28;6307048;20;3644062;-41
2024/01/11 04:39:38;;;;;;;;;84.00;60.33;;;;;-5.29;100.00;100643.41;6274732;20;2895099;-42
2024/01/11 04:42:08;;;;;;;;;90.67;63.33;;;;;-5.13;100.00;100639.31;6307362;20;3664855;-41
2024/01/11 04:44:38;;;;;;;;;82.00;57.00;;;;;-5.07;100.00;100640.28;6307518;20;2904618;-44
2024/01/11 04:47:06;;;;;;;;;73.00;60.00;;;;;-4.97;100.00;100641.34;6304598;20;2502359;-41
2024/01/11 04:49:35;;;;;;;;;91.00;62.50;;;;;-5.08;100.00;100633.31;6272740;20;3661744;-45
2024/01/11 04:52:05;;;;;;;;;92.67;64.00;;;;;-4.94;100.00;100630.03;6307136;20;3657535;-42
2024/01/11 04:54:33;;;;;;;;;90.00;69.50;;;;;-5.14;100.00;100638.41;6302812;20;2502372;-42
2024/01/11 04:57:03;;;;;;;;;93.33;66.67;;;;;-5.35;100.00;100632.81;6272941;20;3670169;-42
2024/01/11 04:59:32;;;;;;;;;76.00;58.00;;;;;-5.39;100.00;100631.88;6304558;20;2873263;-41
2024/01/11 05:02:01;;;;;;;;;93.00;66.00;;;;;-5.09;100.00;100633.25;6274354;20;3660710;-42
2024/01/11 05:04:31;;;;;;;;;96.00;66.33;;;;;-5.05;100.00;100628.94;6305701;20;3673181;-42
2024/01/11 05:07:01;;;;;;;;;91.00;65.33;;;;;-4.90;100.00;100630.13;6306756;20;3663844;-42
2024/01/11 05:09:31;;;;;;;;;97.33;66.00;;;;;-5.18;100.00;100628.75;6309855;20;3661745;-42
2024/01/11 05:12:00;;;;;;;;;93.00;66.67;;;;;-5.09;100.00;100628.03;6308292;20;3663812;-43
2024/01/11 05:14:30;;;;;;;;;90.33;66.00;;;;;-5.26;100.00;100638.22;6304728;20;3658704;-42
2024/01/11 05:17:00;;;;;;;;;94.00;71.67;;;;;-5.43;100.00;100623.94;6307645;20;3664614;-41
2024/01/11 05:19:30;;;;;;;;;100.67;76.00;;;;;-5.19;100.00;100629.59;6307273;20;3659869;-43
2024/01/11 05:22:00;;;;;;;;;94.33;67.67;;;;;-5.23;100.00;100630.41;6305707;20;3667003;-41
2024/01/11 05:24:29;;;;;;;;;96.00;69.00;;;;;-5.30;100.00;100633.78;6303741;20;3670112;-41
2024/01/11 05:26:59;;;;;;;;;94.67;67.67;;;;;-5.02;100.00;100644.75;6304028;20;3675260;-41
2024/01/11 05:29:29;;;;;;;;;95.33;69.00;;;;;-5.93;100.00;100648.25;6304568;20;3659742;-42
2024/01/11 05:31:57;;;;;;;;;83.00;62.00;;;;;-6.94;100.00;100648.63;6301993;20;2502470;-42
2024/01/11 05:34:27;;;;;;;;;80.67;57.00;;;;;-6.06;100.00;100644.53;6269977;20;3648153;-42
2024/01/11 05:36:57;;;;;;;;;87.00;63.67;;;;;-6.07;100.00;100637.56;6305397;20;3644014;-41
2024/01/11 05:39:29;;;;;;;;;99.33;70.00;;;;;-6.86;100.00;100634.91;6307644;20;3673196;-41
2024/01/11 05:41:58;;;;;;;;;90.67;65.33;;;;;-6.89;100.00;100634.84;6302070;20;3674280;-42
2024/01/11 05:44:28;;;;;;;;;96.17;66.17;;;;;-6.68;100.00;100623.16;6297458;20;3677365;-41
2024/01/11 05:46:58;;;;;;;;;104.67;75.00;;;;;-6.05;100.00;100629.75;6305737;20;3686839;-43
2024/01/11 05:49:28;;;;;;;;;99.83;73.83;;;;;-6.05;100.00;100633.25;6302945;20;4437712;-41
2024/01/11 05:51:57;;;;;;;;;107.00;70.00;;;;;-5.72;100.00;100637.34;6306161;20;3689855;-42
2024/01/11 05:54:28;;;;;;;;;103.00;70.00;;;;;-6.89;100.00;100629.63;6304431;20;3690872;-41
2024/01/11 05:56:59;;;;;;;;;86.83;62.50;;;;;-6.90;100.00;100621.75;6269428;20;3670154;-41
2024/01/11 05:59:27;;;;;;;;;97.50;69.25;;;;;-6.81;100.00;100626.31;6303309;20;3665908;-42
2024/01/11 06:02:00;;;;;;;;;117.67;88.00;;;;;-6.47;100.00;100628.84;6270706;20;3706458;-42
2024/01/11 06:04:32;;;;;;;;;88.33;62.67;;;;;-7.33;100.00;100629.41;6271735;20;3676860;-41
2024/01/11 06:07:00;;;;;;;;;89.67;60.67;;;;;-7.68;100.00;100631.09;6303158;20;2907720;-41
2024/01/11 06:09:30;;;;;;;;;110.33;78.67;;;;;-7.45;100.00;100626.50;6306556;20;3690860;-41
2024/01/11 06:12:01;;;;;;;;;105.00;75.00;;;;;-7.87;100.00;100619.28;6275634;20;3682558;-43
2024/01/11 06:14:30;;;;;;;;;85.17;64.33;;;;;-7.85;100.00;100614.97;6303499;20;3653395;-41
2024/01/11 06:16:59;;;;;;;;;84.60;62.20;;;;;-7.57;100.00;100621.81;6301990;20;3646145;-43
2024/01/11 06:19:29;;;;;;;;;91.17;66.00;;;;;-7.33;100.00;100621.56;6269323;20;3655605;-42
2024/01/11 06:21:59;;;;;;;;;105.33;72.33;;;;;-6.46;100.00;100619.28;6301329;20;3674209;-42
2024/01/11 06:24:29;;;;;;;;;112.67;80.33;;;;;-5.78;100.00;100626.78;6301668;20;3681634;-42
2024/01/11 06:26:59;;;;;;;;;130.00;90.67;;;;;-5.63;100.00;100618.34;6302096;20;3714841;-41
2024/01/11 06:29:28;;;;;;;;;119.67;94.33;;;;;-5.54;100.00;100621.13;6270139;20;4469097;-42
2024/01/11 06:31:58;;;;;;;;;136.67;100.33;;;;;-5.46;100.00;100616.91;6293724;20;4494062;-43
2024/01/11 06:34:28;;;;;;;;;79.67;45.67;;;;;-5.36;100.00;100621.47;6265455;20;3599332;-41
2024/01/11 06:36:57;;;;;;;;;101.33;73.00;;;;;-5.15;100.00;100620.97;6305088;20;3700239;-41
2024/01/11 06:39:27;;;;;;;;;102.67;75.33;;;;;-5.19;100.00;100623.50;6306455;20;3686724;-41
2024/01/11 06:41:57;;;;;;;;;104.33;74.33;;;;;-4.98;100.00;100622.97;6268404;20;3685668;-41
2024/01/11 06:44:27;;;;;;;;;103.33;73.67;;;;;-5.07;100.00;100613.25;6303632;20;3692968;-43
2024/01/11 06:46:57;;;;;;;;;100.67;72.33;;;;;-5.17;100.00;100606.09;6267984;20;3691933;-41
2024/01/11 06:49:26;;;;;;;;;96.00;72.00;;;;;-5.13;100.00;100600.94;6270237;20;3677422;-43
2024/01/11 06:51:56;;;;;;;;;100.00;66.00;;;;;-4.91;100.00;100596.03;6305383;20;3692013;-41
2024/01/11 06:54:26;;;;;;;;;98.33;69.00;;;;;-5.04;100.00;100602.81;6266349;20;3672117;-42
2024/01/11 06:56:56;;;;;;;;;102.67;76.00;;;;;-4.62;100.00;100612.19;6304249;20;3675276;-42
2024/01/11 06:59:25;;;;;;;;;109.67;76.67;;;;;-4.43;100.00;100613.34;6299540;20;3685686;-43
2024/01/11 07:01:55;;;;;;;;;101.33;68.33;;;;;-4.58;100.00;100618.34;6268862;20;3685746;-42
2024/01/11 07:04:25;;;;;;;;;96.67;72.67;;;;;-4.74;100.00;100607.66;6299748;20;3663903;-44
2024/01/11 07:06:55;;;;;;;;;114.33;79.00;;;;;-5.32;98.24;100611.91;6303876;20;3694035;-41
2024/01/11 07:09:25;;;;;;;;;132.33;99.67;;;;;-5.08;98.75;100603.63;6272461;20;3731026;-42
2024/01/11 07:11:55;;;;;;;;;132.67;103.00;;;;;-4.88;98.52;100606.56;6269964;20;3716962;-43
2024/01/11 07:14:24;;;;;;;;;119.33;82.67;;;;;-5.24;98.86;100610.34;6268270;20;3697174;-41
2024/01/11 07:16:54;;;;;;;;;116.00;81.67;;;;;-5.69;100.00;100606.00;6275621;20;3700387;-42
2024/01/11 07:19:24;;;;;;;;;108.33;76.00;;;;;-5.56;100.00;100612.38;6273867;20;3675278;-41
2024/01/11 07:21:54;;;;;;;;;100.33;72.00;;;;;-5.06;100.00;100604.50;6275073;20;3688962;-45
2024/01/11 07:24:25;;;;;;;;;96.67;70.00;;;;;-5.05;100.00;100608.00;6307070;20;3653435;-41
2024/01/11 07:26:54;;;;;;;;;92.33;72.00;;;;;-4.41;100.00;100606.38;6307495;20;3647161;-42
2024/01/11 07:29:24;;;;;;;;;94.67;67.67;;;;;-4.32;100.00;100613.47;6305579;20;3669756;-43
2024/01/11 07:31:54;;;;;;;;;110.00;75.00;;;;;-4.20;100.00;100611.91;6308107;20;3689899;-43
2024/01/11 07:34:24;;;;;;;;;93.50;66.00;;;;;-3.71;100.00;100608.09;6271732;20;4434639;-41
2024/01/11 07:36:54;;;;;;;;;98.33;72.67;;;;;-3.76;100.00;100602.84;6308227;20;3682709;-41
2024/01/11 07:39:24;;;;;;;;;97.67;72.00;;;;;-3.44;100.00;100605.78;6274224;20;3669027;-43
2024/01/11 07:41:54;;;;;;;;;111.00;85.00;;;;;-3.45;100.00;100603.13;6308881;20;3672221;-43
2024/01/11 07:44:23;;;;;;;;;99.33;72.33;;;;;-3.03;99.47;100599.16;6272526;20;3687787;-42
2024/01/11 07:46:53;;;;;;;;;117.67;89.33;;;;;-2.94;98.89;100602.75;6304930;20;3697238;-43
2024/01/11 07:49:26;;;;;;;;;102.00;75.00;;;;;-2.82;98.70;100595.81;6274191;20;3676422;-44
2024/01/11 07:51:57;;;;;;;;;133.75;104.50;;;;;-2.75;98.03;100590.63;6307691;20;3752419;-43
2024/01/11 07:54:26;;;;;;;;;99.00;72.00;;;;;-2.29;98.07;100587.38;6274590;20;3671110;-43
2024/01/11 07:56:56;;;;;;;;;110.00;75.67;;;;;-2.11;97.03;100586.59;6309010;20;3676268;-45
2024/01/11 07:59:26;;;;;;;;;97.67;72.00;;;;;-2.23;97.14;100587.44;6305437;20;3682563;-44
2024/01/11 08:01:55;;;;;;;;;105.00;76.00;;;;;-2.15;97.40;100585.72;6308600;20;2798200;-45
2024/01/11 08:04:25;;;;;;;;;120.33;96.33;;;;;-2.98;98.84;100581.69;6271769;20;3700309;-46
2024/01/11 08:06:55;;;;;;;;;148.33;114.00;;;;;-3.02;100.00;100572.03;6276390;20;3711764;-47
2024/01/11 08:09:25;;;;;;;;;115.67;95.67;;;;;-2.70;99.37;100577.50;6275472;20;3687276;-47
2024/01/11 08:11:55;;;;;;;;;110.67;80.33;;;;;-2.24;98.38;100565.50;6275690;20;3666936;-47
2024/01/11 08:14:26;;;;;;;;;126.00;111.33;;;;;-2.39;98.84;100567.19;6304345;20;3707613;-46
2024/01/11 08:16:56;;;;;;;;;97.67;70.67;;;;;-1.50;98.74;100560.47;6275682;20;3678369;-45
2024/01/11 08:19:26;;;;;;;;;102.00;77.33;;;;;-1.32;95.27;100556.97;6305294;20;3659627;-43
2024/01/11 08:21:56;;;;;;;;;90.67;63.00;;;;;-1.09;95.18;100556.97;6309169;20;3674326;-44
2024/01/11 08:24:25;;;;;;;;;94.50;73.00;;;;;-1.04;94.88;100554.34;6304016;20;2665905;-43
2024/01/11 08:26:55;;;;;;;;;98.33;74.33;;;;;-1.00;94.97;100553.44;6309266;20;3649239;-43
2024/01/11 08:29:24;;;;;;;;;99.67;72.00;;;;;-0.88;94.36;100548.19;6307241;20;3663329;-44
2024/01/11 08:31:54;;;;;;;;;104.00;75.00;;;;;-0.77;94.15;100543.75;6306356;20;3675403;-44
2024/01/11 08:34:26;;;;;;;;;75.00;58.00;;;;;-0.65;94.86;100537.59;6272277;20;2885723;-44
2024/01/11 08:36:56;;;;;;;;;96.67;73.00;;;;;-0.56;94.52;100534.06;6272953;20;3657571;-43
2024/01/11 08:39:26;;;;;;;;;100.67;73.00;;;;;-0.65;93.20;100534.09;6305455;20;3666382;-46
2024/01/11 08:41:56;;;;;;;;;93.00;71.67;;;;;-0.36;93.37;100540.16;6273646;20;2894183;-45
2024/01/11 08:44:26;;;;;;;;;90.33;66.00;;;;;-0.31;92.10;100540.16;6304210;20;3658598;-43
2024/01/11 08:46:58;;;;;;;;;99.33;71.00;;;;;-0.49;93.84;100543.72;6305929;20;3662794;-42
2024/01/11 08:49:28;;;;;;;;;101.67;73.00;;;;;-0.45;94.32;100540.16;6304843;20;3671080;-42
2024/01/11 08:51:58;;;;;;;;;100.33;73.67;;;;;-0.41;93.64;100551.63;6272429;20;3656494;-43
2024/01/11 08:54:28;;;;;;;;;104.00;75.33;;;;;-0.35;93.56;100552.44;6305529;20;3674220;-41
2024/01/11 08:56:57;;;;;;;;;87.67;64.00;;;;;-0.60;93.38;100550.78;6275476;20;3663805;-41
2024/01/11 08:59:27;;;;;;;;;102.00;73.67;;;;;-0.56;93.64;100542.84;6307969;20;3671082;-42
2024/01/11 09:01:57;;;;;;;;;106.00;84.00;;;;;-0.46;93.93;100547.22;6310045;20;3700273;-44
2024/01/11 09:04:43;;;;;;;;;107.67;85.00;;;;;-0.47;94.83;100541.97;6273669;20;3699343;-44
2024/01/11 09:07:13;;;;;;;;;115.33;92.33;;;;;-0.19;94.13;100541.84;6275461;20;3688831;-44
2024/01/11 09:09:43;;;;;;;;;114.00;95.67;;;;;-0.27;93.02;100529.56;6276064;20;3701327;-42
2024/01/11 09:12:24;;;;;;;;;115.00;88.33;;;;;-0.44;92.81;100526.13;6274919;20;3701287;-42
2024/01/11 09:14:54;;;;;;;;;111.00;91.00;;;;;-0.17;92.72;100537.44;6271030;20;3693070;-44
2024/01/11 09:17:24;;;;;;;;;126.33;105.00;;;;;-0.10;92.07;100539.19;6277220;20;3706602;-42
2024/01/11 09:19:54;;;;;;;;;190.50;150.00;;;;;-0.24;93.71;100523.38;6275663;20;4489941;-42
2024/01/11 09:22:24;;;;;;;;;109.00;83.00;;;;;-0.26;92.87;100531.31;6274886;20;3694010;-45
2024/01/11 09:24:54;;;;;;;;;151.00;114.50;;;;;-0.28;92.53;100521.66;6271536;20;3720143;-41
2024/01/11 09:27:22;;;;;;;;;143.00;120.50;;;;;-0.33;93.27;100507.59;6302664;20;1967024;-43
2024/01/11 09:29:52;;;;;;;;;151.00;120.67;;;;;-0.17;93.57;100500.50;6274099;20;3730607;-43
2024/01/11 09:32:25;;;;;;;;;121.00;105.67;;;;;-0.14;92.59;100492.56;6276351;20;3703824;-42
2024/01/11 09:34:55;;;;;;;;;112.33;97.00;;;;;-0.15;90.37;100496.09;6272348;20;3679448;-42
2024/01/11 09:37:25;;;;;;;;;134.33;103.67;;;;;-0.01;90.69;100488.97;6273849;20;3707673;-44
2024/01/11 09:39:55;;;;;;;;;128.67;99.67;;;;;0.39;88.25;100476.38;6275980;20;3707559;-44
2024/01/11 09:42:25;;;;;;;;;122.33;98.33;;;;;0.30;88.23;100465.03;6275780;20;3687783;-43
2024/01/11 09:44:57;;;;;;;;;119.00;95.33;;;;;0.33;88.92;100454.44;6274623;20;3702450;-44
2024/01/11 09:47:27;;;;;;;;;118.00;99.67;;;;;0.62;87.14;100449.78;6271436;20;3681509;-45
2024/01/11 09:49:59;;;;;;;;;122.00;100.67;;;;;0.39;88.39;100449.09;6275101;20;3703393;-42
2024/01/11 09:52:31;;;;;;;;;113.00;93.33;;;;;0.43;85.50;100443.78;6272928;20;3704487;-42
2024/01/11 09:55:05;;;;;;;;;120.00;105.67;;;;;0.75;86.59;100434.69;6274298;20;3693035;-42
2024/01/11 09:57:42;;;;;;;;;112.33;93.33;;;;;0.94;85.40;100430.09;6272543;20;3685702;-44
2024/01/11 10:00:18;;;;;;;;;107.33;86.33;;;;;1.07;84.44;100431.72;6273526;20;3683590;-42
2024/01/11 10:02:48;;;;;;;;;103.33;82.00;;;;;0.54;80.91;100421.69;6271678;20;3696269;-42
2024/01/11 10:05:19;;;;;;;;;107.00;84.33;;;;;0.60;83.48;100409.28;6267528;20;3700286;-43
2024/01/11 10:07:50;;;;;;;;;108.33;91.67;;;;;0.77;79.29;100400.34;6274402;20;3696113;-42
2024/01/11 10:10:19;;;;;;;;;98.33;71.00;;;;;0.78;77.28;100395.00;6272803;20;3652342;-43
2024/01/11 10:12:49;;;;;;;;;102.00;72.33;;;;;1.25;75.85;100401.53;6306131;20;3673283;-41
2024/01/11 10:15:19;;;;;;;;;94.00;70.00;;;;;0.78;77.79;100402.94;6270618;20;3660666;-42
2024/01/11 10:17:48;;;;;;;;;97.67;72.33;;;;;0.73;76.06;100395.97;6306259;20;3655474;-43
2024/01/11 10:20:23;;;;;;;;;102.33;77.33;;;;;1.16;78.04;100398.13;6302902;20;3682543;-42
2024/01/11 10:22:55;;;;;;;;;105.00;78.33;;;;;1.31;76.55;100382.94;6270928;20;3691956;-42
2024/01/11 10:25:25;;;;;;;;;97.67;72.67;;;;;1.44;75.26;100388.97;6274408;20;3660739;-42
2024/01/11 10:27:55;;;;;;;;;100.00;74.67;;;;;1.15;76.01;100385.81;6306761;20;3662790;-42
2024/01/11 10:30:26;;;;;;;;;90.00;66.00;;;;;1.36;75.13;100382.91;6305615;20;3652453;-43
2024/01/11 10:32:58;;;;;;;;;90.33;71.00;;;;;1.65;75.23;100378.97;6305432;20;2874415;-42
2024/01/11 10:35:29;;;;;;;;;91.00;68.00;;;;;1.70;75.13;100371.84;6308040;20;3642992;-42
2024/01/11 10:38:00;;;;;;;;;95.00;70.00;;;;;1.79;74.52;100373.47;6306741;20;3664253;-42
2024/01/11 10:40:30;;;;;;;;;90.00;69.00;;;;;1.33;74.53;100368.84;6270560;20;3636705;-42
2024/01/11 10:43:01;;;;;;;;;93.00;70.33;;;;;1.42;74.82;100360.78;6303541;20;3648154;-42
2024/01/11 10:45:38;;;;;;;;;86.33;67.33;;;;;1.57;76.01;100365.00;6302909;20;3648182;-42
2024/01/11 10:48:15;;;;;;;;;86.33;68.67;;;;;1.43;75.72;100362.53;6307430;20;3636837;-43
2024/01/11 10:50:49;;;;;;;;;92.67;69.67;;;;;1.55;75.54;100349.13;6304243;20;3645099;-42
2024/01/11 10:53:38;;;;;;;;;95.00;69.00;;;;;1.57;75.05;100343.81;6304800;20;3655581;-42
2024/01/11 10:56:11;;;;;;;;;95.00;70.00;;;;;1.91;75.60;100337.13;6304479;20;3651317;-44
2024/01/11 10:58:43;;;;;;;;;88.67;68.00;;;;;1.67;75.52;100332.19;6304351;20;2890011;-44
2024/01/11 11:01:14;;;;;;;;;87.33;63.00;;;;;1.84;75.69;100319.56;6300012;20;3655579;-42